Cielo Di Iyo — HOET — position and weather

sailwx.info

Track history (hours):
 
Tides and Currents Weather Stations Pressure Air Temp Water Temp Dewpoint Dewpoint Depression Visibility Wind Speed Wind Dir Waves Ship Positions

Cielo Di Iyo

Last reported at 2017-Aug-13 07:41 UTC. Time now 2017-Aug-17 17:33 UTC.
Position N 29°56' W 090°22'.

Length 183 m; draft 6.7 m.

Type: Cargo ship. MMSI: 372771000.

Date/timePositionNaut miles runAvg speedWind from/ knotsBaromVisibWave heightAir tempDewpointWater temp
2017-Aug-13 07:41N 29°56' W 090°22'0 0.0
2017-Aug-13 07:23N 29°56' W 090°22'0 0.0
2017-Aug-13 06:53N 29°56' W 090°22'0 0.0
2017-Aug-13 06:29N 29°56' W 090°22'0 0.0
2017-Aug-13 05:59N 29°56' W 090°22'0 0.0
2017-Aug-13 05:11N 29°56' W 090°22'0 0.0
2017-Aug-13 04:47N 29°56' W 090°22'0 0.0
2017-Aug-13 04:23N 29°56' W 090°22'0 0.0
2017-Aug-13 03:53N 29°56' W 090°22'0 0.0
2017-Aug-13 03:23N 29°56' W 090°22'0 0.0
2017-Aug-13 02:53N 29°56' W 090°22'0 0.0
2017-Aug-13 02:29N 29°56' W 090°22'0 0.0
2017-Aug-13 00:47N 29°56' W 090°22'0 0.0
2017-Aug-13 00:29N 29°56' W 090°22'0 0.0
2017-Aug-12 23:59N 29°56' W 090°22'  
2017-Aug-08 23:45N 25°19' W 079°37'510.1
2017-Aug-08 23:16N 25°24' W 079°36'3 9.5
2017-Aug-08 23:00N 25°26' W 079°36'5 9.4
2017-Aug-08 22:30N 25°31' W 079°35'5 9.2
2017-Aug-08 21:59N 25°36' W 079°34'4 9.0
2017-Aug-08 21:30N 25°40' W 079°33'5 9.2
2017-Aug-08 21:00N 25°44' W 079°32'5 9.5
2017-Aug-08 20:30N 25°49' W 079°31'5 9.6
2017-Aug-08 20:00N 25°54' W 079°30'10 9.3
2017-Aug-08 18:53N 26°04' W 079°28'4 9.5
2017-Aug-08 18:30N 26°08' W 079°28'5 9.6
2017-Aug-08 18:00N 26°12' W 079°27'5 9.8
2017-Aug-08 17:30N 26°17' W 079°26'  
2017-Aug-05 04:17N 39°48' W 070°59'412.9
2017-Aug-05 04:00N 39°51' W 071°01'712.9
2017-Aug-05 03:30N 39°58' W 071°03'612.9
2017-Aug-05 03:00N 40°04' W 071°04'713.1
2017-Aug-05 02:30N 40°10' W 071°06'713.2
2017-Aug-05 02:00N 40°17' W 071°09'913.0
2017-Aug-05 01:20N 40°25' W 071°12'413.0
2017-Aug-05 01:00N 40°29' W 071°13'713.2
2017-Aug-05 00:30N 40°36' W 071°15'  
Track history (hours):
 
Tides and Currents Weather Stations Pressure Air Temp Water Temp Dewpoint Dewpoint Depression Visibility Wind Speed Wind Dir Waves Ship Positions

Cielo Di Iyo

Last reported at 2017-Aug-13 07:41 UTC. Time now 2017-Aug-17 17:33 UTC.
Position N 29°56' W 090°22'.

Length 183 m; draft 6.7 m.

Type: Cargo ship. MMSI: 372771000.

Date/timePositionNaut miles runAvg speedWind from/ knotsBaromVisibWave heightAir tempDewpointWater temp
2017-Aug-13 07:41N 29°56' W 090°22'0 0.0
2017-Aug-13 07:23N 29°56' W 090°22'0 0.0
2017-Aug-13 06:53N 29°56' W 090°22'0 0.0
2017-Aug-13 06:29N 29°56' W 090°22'0 0.0
2017-Aug-13 05:59N 29°56' W 090°22'0 0.0
2017-Aug-13 05:11N 29°56' W 090°22'0 0.0
2017-Aug-13 04:47N 29°56' W 090°22'0 0.0
2017-Aug-13 04:23N 29°56' W 090°22'0 0.0
2017-Aug-13 03:53N 29°56' W 090°22'0 0.0
2017-Aug-13 03:23N 29°56' W 090°22'0 0.0
2017-Aug-13 02:53N 29°56' W 090°22'0 0.0
2017-Aug-13 02:29N 29°56' W 090°22'0 0.0
2017-Aug-13 00:47N 29°56' W 090°22'0 0.0
2017-Aug-13 00:29N 29°56' W 090°22'0 0.0
2017-Aug-12 23:59N 29°56' W 090°22'  
2017-Aug-08 23:45N 25°19' W 079°37'510.1
2017-Aug-08 23:16N 25°24' W 079°36'3 9.5
2017-Aug-08 23:00N 25°26' W 079°36'5 9.4
2017-Aug-08 22:30N 25°31' W 079°35'5 9.2
2017-Aug-08 21:59N 25°36' W 079°34'4 9.0
2017-Aug-08 21:30N 25°40' W 079°33'5 9.2
2017-Aug-08 21:00N 25°44' W 079°32'5 9.5
2017-Aug-08 20:30N 25°49' W 079°31'5 9.6
2017-Aug-08 20:00N 25°54' W 079°30'10 9.3
2017-Aug-08 18:53N 26°04' W 079°28'4 9.5
2017-Aug-08 18:30N 26°08' W 079°28'5 9.6
2017-Aug-08 18:00N 26°12' W 079°27'5 9.8
2017-Aug-08 17:30N 26°17' W 079°26'  
2017-Aug-05 04:17N 39°48' W 070°59'412.9
2017-Aug-05 04:00N 39°51' W 071°01'712.9
2017-Aug-05 03:30N 39°58' W 071°03'612.9
2017-Aug-05 03:00N 40°04' W 071°04'713.1
2017-Aug-05 02:30N 40°10' W 071°06'713.2
2017-Aug-05 02:00N 40°17' W 071°09'913.0
2017-Aug-05 01:20N 40°25' W 071°12'413.0
2017-Aug-05 01:00N 40°29' W 071°13'713.2
2017-Aug-05 00:30N 40°36' W 071°15'  

Dump ship's entire track history